Time;durP1;ratioP1;P1;durP2;ratioP2;P2;SDS_P1;SDS_P2;PMS_P1;PMS_P2;Temp;Humidity;BMP_temperature;BMP_pressure;BME280_temperature;BME280_humidity;BME280_pressure;Samples;Min_cycle;Max_cycle;Signal;HPM_P1;HPM_P2
2022/11/01 00:02:08;;;;;;;44.60;22.30;;;;;;;3.36;100.00;101868.97;104869;1273;61540;-72
2022/11/01 00:04:36;;;;;;;40.10;20.80;;;;;;;3.35;100.00;101870.04;104850;1269;61523;-72
2022/11/01 00:07:05;;;;;;;36.80;20.20;;;;;;;3.32;100.00;101870.64;104694;1274;73488;-73
2022/11/01 00:09:32;;;;;;;40.50;20.70;;;;;;;3.29;100.00;101871.21;104859;1273;61372;-73
2022/11/01 00:11:59;;;;;;;38.60;20.10;;;;;;;3.26;100.00;101869.89;104793;1281;70082;-72
2022/11/01 00:14:27;;;;;;;34.50;19.20;;;;;;;3.22;100.00;101867.93;104771;1275;74443;-71
2022/11/01 00:16:54;;;;;;;39.00;20.30;;;;;;;3.23;100.00;101862.41;104859;1278;58243;-72
2022/11/01 00:19:21;;;;;;;38.10;21.10;;;;;;;3.23;100.00;101860.86;104852;1272;59628;-72
2022/11/01 00:21:49;;;;;;;37.40;18.90;;;;;;;3.25;100.00;101860.64;104872;1277;75384;-71
2022/11/01 00:24:16;;;;;;;36.20;19.90;;;;;;;3.32;100.00;101856.84;104767;1274;61444;-72
2022/11/01 00:26:43;;;;;;;34.40;19.30;;;;;;;3.30;100.00;101861.39;104828;1273;70770;-72
2022/11/01 00:29:12;;;;;;;33.10;18.90;;;;;;;3.24;100.00;101856.87;104831;1267;62689;-73
2022/11/01 00:31:42;;;;;;;42.50;21.20;;;;;;;3.15;99.96;101850.02;104807;1275;61710;-70
2022/11/01 00:34:09;;;;;;;41.30;20.50;;;;;;;3.13;100.00;101851.27;104968;1272;59375;-71
2022/11/01 00:36:36;;;;;;;38.70;21.00;;;;;;;3.14;100.00;101848.48;104941;1269;63220;-70
2022/11/01 00:39:06;;;;;;;40.60;21.20;;;;;;;3.30;100.00;101855.17;104846;1272;72387;-73
2022/11/01 00:41:34;;;;;;;35.60;20.20;;;;;;;3.37;100.00;101851.55;104794;1281;59595;-72
2022/11/01 00:44:01;;;;;;;35.20;19.30;;;;;;;3.38;99.87;101852.06;104723;1270;64046;-70
2022/11/01 00:46:30;;;;;;;38.60;19.70;;;;;;;3.31;99.04;101848.45;104752;1275;61765;-71
2022/11/01 00:48:58;;;;;;;39.20;19.10;;;;;;;3.23;99.32;101850.88;104895;1281;58266;-70
2022/11/01 00:51:26;;;;;;;37.50;18.60;;;;;;;3.15;99.53;101851.05;104851;1275;64093;-72
2022/11/01 00:53:53;;;;;;;35.10;18.80;;;;;;;3.12;99.90;101850.95;104714;1276;61841;-72
2022/11/01 00:56:20;;;;;;;37.90;19.70;;;;;;;3.12;99.80;101848.55;104809;1275;70056;-73
2022/11/01 00:58:48;;;;;;;37.90;20.80;;;;;;;3.18;99.86;101847.55;104609;1284;74905;-73
2022/11/01 01:01:15;;;;;;;37.10;20.00;;;;;;;3.32;99.69;101851.17;104721;1269;61467;-74
2022/11/01 01:03:42;;;;;;;37.70;19.40;;;;;;;3.32;99.76;101847.36;104552;1287;62612;-72
2022/11/01 01:06:10;;;;;;;37.80;19.50;;;;;;;3.42;99.61;101846.95;104706;1269;75224;-72
2022/11/01 01:08:37;;;;;;;35.80;19.00;;;;;;;3.39;98.33;101850.48;104725;1275;60966;-72
2022/11/01 01:11:04;;;;;;;31.90;18.20;;;;;;;3.28;97.18;101845.77;104689;1275;70852;-70
2022/11/01 01:13:31;;;;;;;36.50;19.20;;;;;;;3.17;97.05;101844.98;104535;1272;73931;-70
2022/11/01 01:15:59;;;;;;;33.40;18.70;;;;;;;3.04;97.32;101839.77;104689;1278;61804;-71
2022/11/01 01:18:26;;;;;;;37.10;18.70;;;;;;;2.95;98.42;101840.33;104778;1275;59643;-71
2022/11/01 01:21:04;;;;;;;38.60;19.20;;;;;;;2.87;99.04;101840.84;104762;1275;73952;-69
2022/11/01 01:23:32;;;;;;;40.30;20.80;;;;;;;2.82;99.86;101835.46;104586;1278;71396;-69
2022/11/01 01:26:03;;;;;;;37.30;20.80;;;;;;;2.86;100.00;101834.02;104746;1279;59886;-71
2022/11/01 01:28:30;;;;;;;42.10;20.40;;;;;;;2.86;100.00;101835.21;104670;1274;73531;-73
2022/11/01 01:30:58;;;;;;;36.90;19.20;;;;;;;2.83;100.00;101830.44;104736;1284;62814;-71
2022/11/01 01:33:25;;;;;;;36.80;19.20;;;;;;;2.76;99.63;101828.52;104701;1269;59944;-71
2022/11/01 01:35:52;;;;;;;39.50;19.80;;;;;;;2.68;99.22;101828.71;104664;1279;63994;-71
2022/11/01 01:38:19;;;;;;;38.40;18.70;;;;;;;2.55;99.22;101828.30;104695;1278;72597;-71
2022/11/01 01:40:47;;;;;;;39.70;19.10;;;;;;;2.47;99.32;101823.84;104758;1274;69443;-71
2022/11/01 01:43:14;;;;;;;37.50;19.50;;;;;;;2.38;99.69;101826.24;104639;1275;63296;-71
2022/11/01 01:45:42;;;;;;;37.30;18.50;;;;;;;2.33;99.67;101826.70;104751;1275;59724;-71
2022/11/01 01:48:25;;;;;;;36.90;19.20;;;;;;;2.28;99.98;101826.61;104679;1271;58045;-72
2022/11/01 01:50:58;;;;;;;49.10;20.70;;;;;;;2.23;99.25;101829.13;104784;1269;74339;-69
2022/11/01 01:53:32;;;;;;;;;;;;;;;2.20;99.78;101828.16;104824;1278;70274;-72
2022/11/01 01:56:08;;;;;;;42.70;20.80;;;;;;;2.16;100.00;101828.77;104791;1283;59505;-70
2022/11/01 01:58:42;;;;;;;39.20;20.60;;;;;;;2.10;100.00;101829.73;104801;1275;73757;-71
2022/11/01 02:01:10;;;;;;;40.80;20.00;;;;;;;2.06;100.00;101832.73;104694;1279;61808;-69
2022/11/01 02:03:40;;;;;;;40.20;19.20;;;;;;;2.09;100.00;101833.19;104914;1281;58576;-72
2022/11/01 02:06:15;;;;;;;40.00;20.90;;;;;;;2.12;100.00;101833.31;104592;1276;63700;-74
2022/11/01 02:09:03;;;;;;;40.10;20.60;;;;;;;2.28;100.00;101832.31;104725;1276;71645;-73
2022/11/01 02:11:30;;;;;;;34.90;19.60;;;;;;;2.40;100.00;101832.73;104846;1272;70701;-72
2022/11/01 02:13:58;;;;;;;42.10;20.40;;;;;;;2.57;99.97;101833.60;104811;1273;73859;-70
2022/11/01 02:16:56;;;;;;;36.10;18.80;;;;;;;2.47;99.70;101834.31;104675;1279;59691;-70
2022/11/01 02:20:00;;;;;;;39.90;20.30;;;;;;;2.41;100.00;101836.34;104787;1278;59749;-70
2022/11/01 02:22:36;;;;;;;;;;;;;;;2.33;100.00;101837.00;104766;1271;75359;-70
2022/11/01 02:25:22;;;;;;;37.00;19.90;;;;;;;2.23;100.00;101836.70;104941;1273;72835;-73
2022/11/01 02:28:21;;;;;;;40.20;21.10;;;;;;;2.17;100.00;101839.40;104965;1275;70520;-71
2022/11/01 02:31:29;;;;;;;40.40;21.30;;;;;;;2.23;100.00;101839.62;104934;1275;73923;-69
2022/11/01 02:34:03;;;;;;;40.60;21.70;;;;;;;2.23;100.00;101842.02;104486;1281;60945;-70
2022/11/01 02:37:03;;;;;;;46.00;21.50;;;;;;;2.21;100.00;101841.73;104783;1282;60349;-71
2022/11/01 02:39:39;;;;;;;41.70;22.50;;;;;;;2.28;100.00;101840.05;104976;1279;73933;-72
2022/11/01 02:42:41;;;;;;;44.40;21.90;;;;;;;2.31;100.00;101844.45;104779;1275;72006;-70
2022/11/01 02:45:34;;;;;;;40.80;21.70;;;;;;;2.39;100.00;101844.80;104803;1279;70343;-70
2022/11/01 02:48:04;;;;;;;42.60;21.20;;;;;;;2.47;100.00;101850.14;104987;1273;73960;-71
2022/11/01 02:50:56;;;;;;;33.40;18.20;;;;;;;2.44;100.00;101850.38;104992;1279;61496;-70
2022/11/01 02:53:23;;;;;;;35.00;17.90;;;;;;;2.33;100.00;101854.55;104920;1281;59702;-69
2022/11/01 02:55:52;;;;;;;38.50;20.70;;;;;;;2.21;100.00;101853.92;104820;1272;74798;-70
2022/11/01 02:58:24;;;;;;;35.70;20.00;;;;;;;2.12;100.00;101855.47;105027;1273;71225;-71
2022/11/01 03:00:51;;;;;;;40.50;20.90;;;;;;;2.02;100.00;101861.00;105031;1272;60430;-70
2022/11/01 03:03:34;;;;;;;39.80;20.50;;;;;;;1.98;100.00;101866.54;105005;1277;73764;-71
2022/11/01 03:06:16;;;;;;;41.10;21.70;;;;;;;1.94;100.00;101866.13;104997;1275;62719;-69
2022/11/01 03:08:53;;;;;;;39.50;22.00;;;;;;;1.98;100.00;101868.46;104994;1269;59899;-70
2022/11/01 03:11:53;;;;;;;39.10;21.40;;;;;;;2.11;100.00;101868.90;104870;1272;64882;-71
2022/11/01 03:14:43;;;;;;;38.10;22.20;;;;;;;2.27;100.00;101863.43;104986;1269;71810;-70
2022/11/01 03:17:50;;;;;;;43.00;22.20;;;;;;;2.40;100.00;101862.66;104924;1280;69520;-70
2022/11/01 03:20:27;;;;;;;40.70;21.20;;;;;;;2.44;100.00;101861.72;104911;1283;64419;-70
2022/11/01 03:22:59;;;;;;;38.00;19.70;;;;;;;2.52;100.00;101862.59;104896;1274;59725;-69
2022/11/01 03:25:38;;;;;;;;;;;;;;;2.49;99.58;101861.46;104895;1274;59613;-70
2022/11/01 03:28:12;;;;;;;34.80;18.90;;;;;;;2.40;99.31;101859.73;104921;1276;73583;-69
2022/11/01 03:30:44;;;;;;;35.30;19.90;;;;;;;2.33;99.29;101864.86;104895;1275;73011;-70
2022/11/01 03:33:14;;;;;;;36.90;18.70;;;;;;;2.23;98.98;101863.00;104926;1278;60354;-71
2022/11/01 03:35:47;;;;;;;34.70;19.50;;;;;;;2.14;99.11;101872.45;104814;1279;62438;-72
2022/11/01 03:38:23;;;;;;;42.00;19.80;;;;;;;2.04;99.57;101872.98;104723;1281;59721;-70
2022/11/01 03:41:00;;;;;;;38.70;19.70;;;;;;;1.95;100.00;101870.22;104790;1284;60870;-70
2022/11/01 03:43:30;;;;;;;36.00;19.90;;;;;;;1.89;100.00;101870.85;104811;1278;65573;-70
2022/11/01 03:45:57;;;;;;;37.70;20.50;;;;;;;1.83;100.00;101871.11;104926;1274;72096;-72
2022/11/01 03:48:25;;;;;;;42.10;20.70;;;;;;;1.83;100.00;101872.16;104791;1282;69259;-70
2022/11/01 03:50:56;;;;;;;38.80;20.50;;;;;;;1.95;100.00;101872.46;104927;1276;62596;-72
2022/11/01 03:53:24;;;;;;;37.10;20.40;;;;;;;1.97;99.95;101873.63;104907;1273;61455;-72
2022/11/01 03:55:51;;;;;;;41.70;21.50;;;;;;;1.92;99.96;101872.69;104875;1276;60207;-71
2022/11/01 03:58:19;;;;;;;44.00;21.50;;;;;;;1.86;100.00;101871.41;104744;1275;64514;-71
2022/11/01 04:00:46;;;;;;;38.60;20.10;;;;;;;1.78;100.00;101876.02;104866;1279;69720;-72
2022/11/01 04:03:13;;;;;;;42.40;20.20;;;;;;;1.71;100.00;101871.85;104804;1279;70838;-70
2022/11/01 04:05:42;;;;;;;41.00;20.40;;;;;;;1.67;100.00;101876.40;104960;1276;73055;-71
2022/11/01 04:08:11;;;;;;;39.30;21.10;;;;;;;1.63;100.00;101872.16;104778;1284;60631;-74
2022/11/01 04:10:38;;;;;;;41.00;21.00;;;;;;;1.62;100.00;101870.46;104938;1273;59653;-72
2022/11/01 04:13:05;;;;;;;43.70;21.20;;;;;;;1.57;99.98;101870.19;104707;1273;370453;-72
2022/11/01 04:21:22;;;;;;;48.70;24.80;;;;;;;1.49;100.00;101861.92;104719;1284;74145;-72
2022/11/01 04:23:50;;;;;;;44.10;23.60;;;;;;;1.46;100.00;101863.16;104871;1278;63021;-73
2022/11/01 04:26:21;;;;;;;42.60;23.10;;;;;;;1.42;100.00;101861.69;104639;1278;59534;-72
2022/11/01 04:28:58;;;;;;;45.80;22.80;;;;;;;1.38;100.00;101859.00;104735;1280;73327;-71
2022/11/01 04:31:29;;;;;;;44.40;21.50;;;;;;;1.34;100.00;101859.05;105020;1283;71415;-71
2022/11/01 04:33:58;;;;;;;42.60;24.50;;;;;;;1.37;100.00;101855.91;104900;1279;70147;-70
2022/11/01 04:36:26;;;;;;;42.30;22.70;;;;;;;1.41;100.00;101859.29;104984;1279;74183;-73
2022/11/01 04:38:56;;;;;;;51.70;27.20;;;;;;;1.41;100.00;101857.41;104951;1284;61875;-70
2022/11/01 04:41:26;;;;;;;60.10;31.70;;;;;;;1.38;100.00;101858.31;104829;1283;57888;-70
2022/11/01 04:43:57;;;;;;;48.50;23.90;;;;;;;1.35;100.00;101858.52;104842;1284;63711;-69
2022/11/01 04:46:26;;;;;;;44.70;24.10;;;;;;;1.31;100.00;101860.13;104756;1283;70215;-70
2022/11/01 04:48:54;;;;;;;44.10;24.30;;;;;;;1.29;100.00;101858.97;104791;1276;70519;-71
2022/11/01 04:51:21;;;;;;;44.70;23.30;;;;;;;1.27;100.00;101856.95;104942;1273;72677;-69
2022/11/01 04:53:48;;;;;;;42.00;22.50;;;;;;;1.25;100.00;101856.98;104797;1281;59883;-69
2022/11/01 04:56:15;;;;;;;45.20;23.80;;;;;;;1.24;100.00;101858.02;105007;1274;61303;-69
2022/11/01 04:58:43;;;;;;;42.70;23.10;;;;;;;1.26;100.00;101858.85;105053;1276;75139;-72
2022/11/01 05:01:13;;;;;;;44.90;24.00;;;;;;;1.36;100.00;101857.31;105013;1283;71556;-76
2022/11/01 05:03:42;;;;;;;40.60;23.00;;;;;;;1.47;100.00;101858.35;104902;1277;59894;-73
2022/11/01 05:06:10;;;;;;;41.60;23.60;;;;;;;1.53;99.69;101858.77;104912;1284;73756;-69
2022/11/01 05:08:37;;;;;;;42.10;22.80;;;;;;;1.52;99.77;101856.20;104756;1275;62247;-69
2022/11/01 05:11:05;;;;;;;44.80;24.30;;;;;;;1.53;99.75;101860.14;104977;1269;60256;-70
2022/11/01 05:13:32;;;;;;;47.40;23.70;;;;;;;1.51;99.87;101857.92;104971;1282;73958;-73
2022/11/01 05:16:04;;;;;;;42.30;23.60;;;;;;;1.52;99.92;101859.97;104916;1270;70204;-70
2022/11/01 05:18:48;;;;;;;42.70;23.10;;;;;;;1.55;100.00;101857.85;104956;1283;68960;-69
2022/11/01 05:21:16;;;;;;;47.00;24.10;;;;;;;1.63;99.99;101851.03;104881;1274;73922;-67
2022/11/01 05:23:47;;;;;;;49.30;25.20;;;;;;;1.70;100.00;101853.98;104846;1275;60914;-71
2022/11/01 05:26:14;;;;;;;47.30;25.20;;;;;;;1.84;100.00;101858.05;104989;1274;59631;-70
2022/11/01 05:28:41;;;;;;;50.40;25.30;;;;;;;1.92;100.00;101857.22;104922;1277;74942;-71
2022/11/01 05:31:09;;;;;;;48.20;25.80;;;;;;;1.96;100.00;101860.40;104957;1273;71560;-69
2022/11/01 05:33:36;;;;;;;46.60;25.10;;;;;;;1.99;100.00;101858.65;104825;1282;69179;-70
2022/11/01 05:36:04;;;;;;;45.80;25.80;;;;;;;2.04;100.00;101859.73;104949;1280;72156;-70
2022/11/01 05:38:31;;;;;;;48.50;25.10;;;;;;;2.09;100.00;101855.35;104957;1273;60438;-70
2022/11/01 05:41:02;;;;;;;48.40;25.90;;;;;;;2.18;100.00;101852.61;104920;1269;60777;-70
2022/11/01 05:43:29;;;;;;;49.10;26.40;;;;;;;2.24;100.00;101853.86;104741;1281;74517;-70
2022/11/01 05:45:57;;;;;;;46.90;24.90;;;;;;;2.29;100.00;101855.99;105423;1275;61041;-70
2022/11/01 05:48:24;;;;;;;58.60;26.90;;;;;;;2.37;100.00;101857.90;105240;1279;68242;-71
2022/11/01 05:50:51;;;;;;;50.30;28.80;;;;;;;2.47;100.00;101860.30;104906;1283;72173;-71
2022/11/01 05:53:18;;;;;;;49.10;29.00;;;;;;;2.57;99.96;101861.98;104853;1276;61525;-70
2022/11/01 05:55:46;;;;;;;56.80;31.60;;;;;;;2.70;100.00;101863.59;104734;1278;60315;-70
2022/11/01 05:58:13;;;;;;;56.50;31.40;;;;;;;2.85;100.00;101865.16;104764;1284;72278;-69
2022/11/01 06:00:41;;;;;;;59.90;31.20;;;;;;;3.01;99.83;101864.30;104565;1282;70271;-70
2022/11/01 06:03:09;;;;;;;56.20;32.10;;;;;;;3.15;99.53;101867.58;104844;1282;59474;-70
2022/11/01 06:05:38;;;;;;;49.90;29.00;;;;;;;3.32;99.39;101867.89;104905;1279;63728;-70
2022/11/01 06:08:06;;;;;;;47.90;28.20;;;;;;;3.40;98.67;101866.98;104928;1283;59768;-69
2022/11/01 06:10:33;;;;;;;50.40;30.20;;;;;;;3.49;98.26;101861.60;104860;1284;57929;-70
2022/11/01 06:13:00;;;;;;;48.30;28.30;;;;;;;3.55;97.70;101863.36;104799;1272;64343;-71
2022/11/01 06:15:29;;;;;;;46.40;28.10;;;;;;;3.56;97.31;101861.60;104930;1275;71631;-70
2022/11/01 06:18:01;;;;;;;45.20;26.80;;;;;;;3.62;97.35;101859.20;104959;1283;62696;-69
2022/11/01 06:20:31;;;;;;;42.40;25.80;;;;;;;3.75;96.94;101863.02;105079;1278;74084;-71
2022/11/01 06:22:59;;;;;;;44.10;25.20;;;;;;;3.78;96.55;101864.49;104737;1275;58963;-71
2022/11/01 06:25:27;;;;;;;42.40;26.30;;;;;;;3.79;96.53;101860.66;104890;1280;60148;-72
2022/11/01 06:27:54;;;;;;;48.90;29.70;;;;;;;3.83;96.61;101862.30;104953;1283;73539;-71
2022/11/01 06:30:22;;;;;;;47.40;26.20;;;;;;;3.85;96.57;101862.78;104813;1282;73276;-69
2022/11/01 06:32:49;;;;;;;40.50;24.40;;;;;;;3.94;96.38;101862.17;104880;1274;60807;-70
2022/11/01 06:35:17;;;;;;;44.00;26.40;;;;;;;3.93;96.25;101859.77;104725;1275;73309;-70
2022/11/01 06:37:44;;;;;;;43.10;25.80;;;;;;;3.99;96.29;101855.50;104896;1275;59616;-70
2022/11/01 06:40:12;;;;;;;44.80;30.30;;;;;;;4.08;96.19;101856.13;104870;1282;59046;-69
2022/11/01 06:42:39;;;;;;;45.10;28.30;;;;;;;4.14;96.16;101853.19;104952;1274;64880;-70
2022/11/01 06:45:13;;;;;;;35.20;23.90;;;;;;;4.24;95.82;101854.30;104856;1281;61888;-69
2022/11/01 06:47:46;;;;;;;39.90;25.10;;;;;;;4.22;96.18;101850.92;104881;1283;69957;-71
2022/11/01 06:50:13;;;;;;;40.20;24.10;;;;;;;4.34;96.19;101847.30;104915;1278;63986;-70
2022/11/01 06:52:40;;;;;;;36.80;26.10;;;;;;;4.48;95.68;101851.37;104872;1279;62381;-71
2022/11/01 06:55:08;;;;;;;42.20;25.90;;;;;;;4.56;95.16;101849.44;104882;1279;59566;-71
2022/11/01 06:57:36;;;;;;;45.00;26.10;;;;;;;4.60;95.29;101848.27;104923;1274;74595;-70
2022/11/01 07:00:05;;;;;;;40.10;24.30;;;;;;;4.73;94.70;101851.17;104899;1280;62137;-68
2022/11/01 07:02:32;;;;;;;42.10;25.30;;;;;;;4.85;94.25;101846.66;104827;1273;59916;-69
2022/11/01 07:05:00;;;;;;;47.30;25.50;;;;;;;4.99;93.83;101843.64;104957;1274;74281;-70
2022/11/01 07:07:27;;;;;;;43.10;26.80;;;;;;;5.08;93.06;101843.35;104764;1278;59659;-70
2022/11/01 07:09:54;;;;;;;44.50;25.70;;;;;;;5.08;93.12;101841.81;104947;1282;60713;-70
2022/11/01 07:12:21;;;;;;;44.10;27.60;;;;;;;5.19;92.87;101840.76;104830;1278;75765;-71
2022/11/01 07:14:49;;;;;;;52.00;32.60;;;;;;;5.28;92.22;101838.74;104923;1275;71571;-72
2022/11/01 07:17:16;;;;;;;44.90;26.30;;;;;;;5.34;91.92;101839.25;104905;1278;59958;-70
2022/11/01 07:19:44;;;;;;;47.60;28.10;;;;;;;5.42;91.96;101837.80;104929;1273;74744;-71
2022/11/01 07:22:13;;;;;;;46.90;26.10;;;;;;;5.54;91.52;101833.73;104910;1276;63247;-70
2022/11/01 07:24:40;;;;;;;45.10;26.20;;;;;;;5.65;90.95;101835.98;104949;1276;59180;-71
2022/11/01 07:27:08;;;;;;;46.10;28.40;;;;;;;5.80;90.46;101837.70;104737;1278;73518;-71
2022/11/01 07:29:35;;;;;;;44.40;27.10;;;;;;;5.92;89.72;101837.50;104896;1279;61391;-71
2022/11/01 07:32:02;;;;;;;48.70;30.70;;;;;;;6.05;89.20;101831.31;104869;1278;70136;-72
2022/11/01 07:34:30;;;;;;;51.80;30.20;;;;;;;6.10;88.29;101825.95;104874;1278;71993;-73
2022/11/01 07:36:57;;;;;;;44.60;26.60;;;;;;;6.10;88.08;101825.09;104837;1284;58967;-72
2022/11/01 07:39:25;;;;;;;69.30;28.30;;;;;;;6.13;87.88;101827.25;104736;1273;61530;-72
2022/11/01 07:41:53;;;;;;;40.00;25.40;;;;;;;6.23;87.67;101823.95;104778;1282;63754;-71
2022/11/01 07:44:21;;;;;;;44.60;28.20;;;;;;;6.40;87.02;101823.83;104862;1283;70519;-72
2022/11/01 07:46:48;;;;;;;44.60;28.20;;;;;;;6.59;86.83;101821.52;104854;1275;59933;-71
2022/11/01 07:49:15;;;;;;;44.00;25.70;;;;;;;6.85;85.79;101819.85;104736;1283;72540;-73
2022/11/01 07:51:43;;;;;;;50.60;27.20;;;;;;;6.97;84.66;101816.77;104826;1280;62270;-73
2022/11/01 07:54:10;;;;;;;44.70;26.20;;;;;;;7.13;83.65;101813.87;105191;1278;61157;-73
2022/11/01 07:56:38;;;;;;;48.80;27.10;;;;;;;7.23;83.22;101811.39;105195;1276;63659;-73
2022/11/01 07:59:05;;;;;;;49.70;30.10;;;;;;;7.37;83.07;101807.69;105119;1279;61074;-72
2022/11/01 08:01:32;;;;;;;50.40;27.80;;;;;;;7.56;82.06;101809.00;104887;1284;59480;-70
2022/11/01 08:04:00;;;;;;;43.00;27.10;;;;;;;7.66;81.16;101805.10;104982;1283;74232;-71
2022/11/01 08:06:27;;;;;;;41.50;25.90;;;;;;;7.81;81.05;101805.67;104922;1279;59561;-72
2022/11/01 08:08:54;;;;;;;40.60;25.10;;;;;;;8.01;80.20;101802.52;104908;1284;59720;-72
2022/11/01 08:11:21;;;;;;;41.10;24.50;;;;;;;8.20;79.99;101802.02;104927;1276;65183;-72
2022/11/01 08:13:49;;;;;;;37.50;25.10;;;;;;;8.39;78.71;101799.64;104949;1275;72453;-73
2022/11/01 08:16:17;;;;;;;36.90;23.20;;;;;;;8.47;78.30;101793.36;104872;1275;59899;-72
2022/11/01 08:18:44;;;;;;;37.30;22.50;;;;;;;8.63;77.88;101789.83;104968;1273;63195;-73
2022/11/01 08:21:17;;;;;;;37.70;22.10;;;;;;;8.78;77.76;101786.35;104948;1277;63279;-72
2022/11/01 08:23:45;;;;;;;39.10;24.10;;;;;;;8.96;76.90;101788.08;105019;1279;59664;-73
2022/11/01 08:26:14;;;;;;;37.70;22.40;;;;;;;9.14;75.89;101784.94;104802;1275;73674;-73
2022/11/01 08:28:41;;;;;;;44.20;27.40;;;;;;;9.23;75.29;101782.58;105047;1284;62213;-70
2022/11/01 08:31:09;;;;;;;48.90;33.20;;;;;;;9.35;74.65;101783.92;104907;1280;60271;-71
2022/11/01 08:33:37;;;;;;;94.70;74.40;;;;;;;9.47;74.01;101789.02;105412;1275;63162;-77
2022/11/01 08:36:05;;;;;;;74.70;54.60;;;;;;;9.62;74.04;101791.41;105010;1274;59707;-70
2022/11/01 08:38:32;;;;;;;71.40;50.70;;;;;;;9.77;73.31;101791.13;104964;1275;59721;-70
2022/11/01 08:40:59;;;;;;;50.40;29.80;;;;;;;9.95;72.79;101790.20;104770;1275;74583;-70
2022/11/01 08:43:27;;;;;;;49.50;29.90;;;;;;;10.14;72.03;101790.25;104895;1279;71556;-71
2022/11/01 08:45:54;;;;;;;48.10;29.40;;;;;;;10.29;71.74;101791.17;104719;1281;60545;-71
2022/11/01 08:48:21;;;;;;;49.00;29.60;;;;;;;10.47;71.48;101793.91;104768;1275;62828;-71
2022/11/01 08:50:48;;;;;;;47.00;26.00;;;;;;;10.68;70.68;101790.64;104666;1286;61678;-72
2022/11/01 08:53:16;;;;;;;45.80;25.80;;;;;;;10.79;70.24;101789.15;104577;1283;60697;-70
2022/11/01 08:55:43;;;;;;;41.60;25.80;;;;;;;10.90;70.19;101789.05;104680;1281;63596;-69
2022/11/01 08:58:11;;;;;;;43.80;25.70;;;;;;;11.12;70.63;101784.31;104459;1279;73729;-71
2022/11/01 09:00:38;;;;;;;40.00;25.80;;;;;;;11.25;69.39;101779.02;104715;1286;61118;-69
2022/11/01 09:03:05;;;;;;;42.90;23.50;;;;;;;11.31;67.97;101781.14;104722;1284;74860;-69
2022/11/01 09:05:34;;;;;;;44.20;25.40;;;;;;;11.37;68.09;101780.73;104742;1282;59082;-70
2022/11/01 09:08:01;;;;;;;45.30;25.70;;;;;;;11.52;67.31;101778.34;104633;1284;59060;-70
2022/11/01 09:10:29;;;;;;;45.50;25.80;;;;;;;11.66;66.79;101773.79;104636;1275;64129;-69
2022/11/01 09:12:59;;;;;;;43.10;25.80;;;;;;;11.70;66.35;101766.59;104603;1284;61636;-72
2022/11/01 09:15:27;;;;;;;47.60;26.10;;;;;;;11.76;66.24;101765.35;104815;1274;68261;-70
2022/11/01 09:17:54;;;;;;;49.20;27.20;;;;;;;11.75;66.02;101762.25;104617;1282;62788;-71
2022/11/01 09:20:22;;;;;;;40.70;24.70;;;;;;;11.89;66.07;101758.83;104790;1283;60798;-72
2022/11/01 09:22:53;;;;;;;39.10;26.20;;;;;;;12.02;65.74;101759.27;104744;1273;60236;-68
2022/11/01 09:25:20;;;;;;;42.50;26.10;;;;;;;12.19;66.07;101755.59;104635;1275;73993;-71
2022/11/01 09:27:48;;;;;;;46.30;28.60;;;;;;;12.19;65.14;101748.42;104801;1280;71879;-72
2022/11/01 09:30:15;;;;;;;44.20;28.50;;;;;;;12.21;65.20;101738.15;104885;1274;59740;-70
2022/11/01 09:32:42;;;;;;;48.60;28.30;;;;;;;12.40;65.36;101737.48;104535;1276;73491;-69
2022/11/01 09:35:09;;;;;;;46.20;27.70;;;;;;;12.64;64.98;101737.16;104750;1275;61386;-69
2022/11/01 09:37:37;;;;;;;45.50;25.30;;;;;;;12.74;64.37;101732.30;104931;1282;58256;-68
2022/11/01 09:40:06;;;;;;;44.50;25.20;;;;;;;12.93;64.15;101727.40;104918;1273;63371;-70
2022/11/01 09:42:40;;;;;;;39.70;24.60;;;;;;;13.10;63.88;101725.05;104694;1278;61230;-70
2022/11/01 09:45:29;;;;;;;37.90;22.00;;;;;;;13.26;62.93;101719.42;104953;1286;68198;-71
2022/11/01 09:47:58;;;;;;;33.70;21.80;;;;;;;13.27;62.99;101717.28;104808;1281;74159;-72
2022/11/01 09:50:33;;;;;;;35.10;21.60;;;;;;;13.39;62.95;101713.47;104772;1276;59093;-70
2022/11/01 09:53:07;;;;;;;42.40;21.40;;;;;;;13.55;62.47;101709.77;104855;1279;61550;-70
2022/11/01 09:56:04;;;;;;;37.60;21.60;;;;;;;13.74;62.39;101705.63;104825;1284;62822;-69
2022/11/01 09:58:49;;;;;;;32.00;19.70;;;;;;;13.93;62.28;101705.02;104950;1278;62447;-70
2022/11/01 10:02:04;;;;;;;31.60;19.40;;;;;;;14.01;60.96;101701.09;105015;1279;62331;-69
2022/11/01 10:05:25;;;;;;;28.10;18.70;;;;;;;14.09;60.93;101696.35;104749;1284;73759;-71
2022/11/01 10:08:16;;;;;;;31.30;18.80;;;;;;;14.30;60.32;101698.14;104678;1281;61291;-70
2022/11/01 10:11:07;;;;;;;29.30;17.10;;;;;;;14.50;60.34;101695.14;104916;1275;61350;-69
2022/11/01 10:14:36;;;;;;;28.00;17.20;;;;;;;14.74;60.29;101689.37;105013;1269;63875;-70
2022/11/01 10:17:17;;;;;;;31.00;16.70;;;;;;;15.03;58.17;101693.98;104541;1276;72772;-72
2022/11/01 10:19:49;;;;;;;22.90;14.60;;;;;;;15.14;56.78;101688.98;104939;1275;71116;-70
2022/11/01 10:22:28;;;;;;;27.00;16.80;;;;;;;15.45;57.31;101678.69;104791;1275;73677;-71
2022/11/01 10:25:03;;;;;;;26.60;17.60;;;;;;;15.53;56.46;101675.11;104960;1282;59245;-70
2022/11/01 10:28:14;;;;;;;29.60;16.80;;;;;;;15.56;55.76;101667.98;104998;1278;58286;-70
2022/11/01 10:31:04;;;;;;;30.70;16.40;;;;;;;15.66;55.32;101658.66;104990;1284;73622;-71
2022/11/01 10:33:40;;;;;;;27.00;16.70;;;;;;;15.97;55.44;101653.73;104948;1276;72373;-70
2022/11/01 10:36:24;;;;;;;25.10;16.40;;;;;;;16.37;54.92;101651.28;104975;1279;71166;-71
2022/11/01 10:39:17;;;;;;;27.60;16.10;;;;;;;16.65;54.07;101642.66;104732;1278;62910;-71
2022/11/01 10:42:14;;;;;;;28.80;14.90;;;;;;;17.07;53.67;101632.66;104890;1271;60854;-72
2022/11/01 10:44:53;;;;;;;23.90;15.70;;;;;;;17.07;52.02;101628.77;104964;1275;61116;-71
2022/11/01 10:47:23;;;;;;;27.30;16.00;;;;;;;17.08;51.84;101625.23;104783;1283;63153;-70
2022/11/01 10:49:57;;;;;;;25.20;15.30;;;;;;;17.47;52.36;101624.11;104773;1277;72570;-71
2022/11/01 10:53:04;;;;;;;24.60;15.80;;;;;;;17.81;51.01;101629.10;104847;1279;70274;-73
2022/11/01 10:55:48;;;;;;;24.50;16.20;;;;;;;17.82;50.83;101625.81;104697;1277;74779;-72
2022/11/01 10:58:42;;;;;;;24.80;15.70;;;;;;;18.09;51.12;101613.90;104857;1275;59633;-72
2022/11/01 11:01:17;;;;;;;27.80;15.60;;;;;;;18.43;50.29;101605.11;104900;1285;61764;-72
2022/11/01 11:03:47;;;;;;;26.50;15.50;;;;;;;18.19;48.81;101598.52;104951;1274;74072;-72
2022/11/01 11:06:15;;;;;;;23.30;13.80;;;;;;;18.30;49.08;101595.90;104963;1270;61273;-70
2022/11/01 11:08:48;;;;;;;26.00;15.90;;;;;;;18.54;48.50;101594.84;104799;1284;59630;-71
2022/11/01 11:11:17;;;;;;;21.20;13.90;;;;;;;18.83;48.19;101586.14;104858;1275;63173;-73
2022/11/01 11:13:53;;;;;;;25.70;14.60;;;;;;;19.11;47.33;101581.14;104806;1278;60508;-71
2022/11/01 11:16:30;;;;;;;29.40;15.10;;;;;;;19.41;46.95;101579.60;104924;1274;59604;-72
2022/11/01 11:19:07;;;;;;;21.30;13.60;;;;;;;19.51;46.43;101577.96;104911;1275;74418;-70
2022/11/01 11:21:34;;;;;;;26.30;14.40;;;;;;;18.91;46.66;101576.85;104762;1274;61109;-71
2022/11/01 11:24:02;;;;;;;28.40;14.60;;;;;;;18.87;47.09;101580.23;104949;1273;69891;-69
2022/11/01 11:26:39;;;;;;;30.70;16.00;;;;;;;19.22;46.15;101575.92;104715;1280;74621;-70
2022/11/01 11:29:06;;;;;;;27.10;15.30;;;;;;;19.27;46.46;101574.90;104857;1280;59641;-70
2022/11/01 11:31:34;;;;;;;25.00;14.40;;;;;;;19.51;45.61;101568.59;104861;1277;60586;-70
2022/11/01 11:34:28;;;;;;;25.10;15.00;;;;;;;19.55;45.63;101560.92;104978;1286;63145;-72